sensor_id;sensor_type;location;lat;lon;timestamp;P1;durP1;ratioP1;P2;durP2;ratioP2
62957;SDS011;49056;48.352;10.926;2023-02-28T00:02:30;2.42;;;1.20;;
62957;SDS011;49056;48.352;10.926;2023-02-28T00:07:51;1.30;;;0.80;;
62957;SDS011;49056;48.352;10.926;2023-02-28T00:13:12;1.27;;;0.80;;
62957;SDS011;49056;48.352;10.926;2023-02-28T00:18:33;0.88;;;0.70;;
62957;SDS011;49056;48.352;10.926;2023-02-28T00:23:54;0.95;;;0.60;;
62957;SDS011;49056;48.352;10.926;2023-02-28T00:29:15;1.33;;;1.00;;
62957;SDS011;49056;48.352;10.926;2023-02-28T00:34:36;2.83;;;1.35;;
62957;SDS011;49056;48.352;10.926;2023-02-28T00:39:58;1.92;;;0.68;;
62957;SDS011;49056;48.352;10.926;2023-02-28T00:45:18;2.50;;;1.05;;
62957;SDS011;49056;48.352;10.926;2023-02-28T00:50:39;1.08;;;0.75;;
62957;SDS011;49056;48.352;10.926;2023-02-28T00:55:59;1.73;;;0.85;;
62957;SDS011;49056;48.352;10.926;2023-02-28T01:01:20;1.45;;;0.90;;
62957;SDS011;49056;48.352;10.926;2023-02-28T01:06:40;2.17;;;1.20;;
62957;SDS011;49056;48.352;10.926;2023-02-28T01:12:01;1.60;;;0.85;;
62957;SDS011;49056;48.352;10.926;2023-02-28T01:17:21;1.37;;;0.80;;
62957;SDS011;49056;48.352;10.926;2023-02-28T01:22:42;2.43;;;1.47;;
62957;SDS011;49056;48.352;10.926;2023-02-28T01:28:02;2.03;;;1.15;;
62957;SDS011;49056;48.352;10.926;2023-02-28T01:33:22;1.70;;;1.07;;
62957;SDS011;49056;48.352;10.926;2023-02-28T01:38:43;2.28;;;1.10;;
62957;SDS011;49056;48.352;10.926;2023-02-28T01:44:05;3.58;;;1.30;;
62957;SDS011;49056;48.352;10.926;2023-02-28T01:49:25;1.30;;;1.17;;
62957;SDS011;49056;48.352;10.926;2023-02-28T01:54:47;1.20;;;0.80;;
62957;SDS011;49056;48.352;10.926;2023-02-28T02:00:13;1.87;;;0.80;;
62957;SDS011;49056;48.352;10.926;2023-02-28T02:05:35;0.75;;;0.55;;
62957;SDS011;49056;48.352;10.926;2023-02-28T02:10:58;2.00;;;1.00;;
62957;SDS011;49056;48.352;10.926;2023-02-28T02:16:39;2.42;;;1.12;;
62957;SDS011;49056;48.352;10.926;2023-02-28T02:44:14;2.22;;;1.05;;
62957;SDS011;49056;48.352;10.926;2023-02-28T02:49:39;2.42;;;0.93;;
62957;SDS011;49056;48.352;10.926;2023-02-28T02:55:00;2.78;;;1.65;;
62957;SDS011;49056;48.352;10.926;2023-02-28T03:00:23;2.85;;;1.10;;
62957;SDS011;49056;48.352;10.926;2023-02-28T03:05:46;1.40;;;0.70;;
62957;SDS011;49056;48.352;10.926;2023-02-28T03:11:10;1.58;;;1.20;;
62957;SDS011;49056;48.352;10.926;2023-02-28T03:27:28;2.15;;;1.25;;
62957;SDS011;49056;48.352;10.926;2023-02-28T03:38:17;2.75;;;1.25;;
62957;SDS011;49056;48.352;10.926;2023-02-28T03:43:39;2.45;;;1.08;;
62957;SDS011;49056;48.352;10.926;2023-02-28T03:49:07;2.45;;;1.35;;
62957;SDS011;49056;48.352;10.926;2023-02-28T03:54:29;3.28;;;1.55;;
62957;SDS011;49056;48.352;10.926;2023-02-28T04:00:06;3.03;;;1.42;;
62957;SDS011;49056;48.352;10.926;2023-02-28T04:05:27;2.75;;;1.33;;
62957;SDS011;49056;48.352;10.926;2023-02-28T04:10:50;2.45;;;1.17;;
62957;SDS011;49056;48.352;10.926;2023-02-28T04:16:11;2.37;;;1.40;;
62957;SDS011;49056;48.352;10.926;2023-02-28T04:21:33;1.87;;;1.17;;
62957;SDS011;49056;48.352;10.926;2023-02-28T04:26:54;5.35;;;1.70;;
62957;SDS011;49056;48.352;10.926;2023-02-28T04:32:15;4.30;;;2.37;;
62957;SDS011;49056;48.352;10.926;2023-02-28T04:37:35;5.00;;;1.90;;
62957;SDS011;49056;48.352;10.926;2023-02-28T04:42:56;2.90;;;1.48;;
62957;SDS011;49056;48.352;10.926;2023-02-28T04:48:17;3.08;;;1.62;;
62957;SDS011;49056;48.352;10.926;2023-02-28T04:53:37;2.62;;;1.75;;
62957;SDS011;49056;48.352;10.926;2023-02-28T04:58:58;1.95;;;1.17;;
62957;SDS011;49056;48.352;10.926;2023-02-28T05:04:19;2.85;;;1.50;;
62957;SDS011;49056;48.352;10.926;2023-02-28T05:09:39;1.75;;;1.02;;
62957;SDS011;49056;48.352;10.926;2023-02-28T05:14:59;3.62;;;1.90;;
62957;SDS011;49056;48.352;10.926;2023-02-28T05:20:21;2.85;;;1.85;;
62957;SDS011;49056;48.352;10.926;2023-02-28T05:25:41;2.75;;;1.20;;
62957;SDS011;49056;48.352;10.926;2023-02-28T05:31:01;2.33;;;1.20;;
62957;SDS011;49056;48.352;10.926;2023-02-28T05:36:22;2.97;;;1.40;;
62957;SDS011;49056;48.352;10.926;2023-02-28T05:41:42;2.37;;;1.52;;
62957;SDS011;49056;48.352;10.926;2023-02-28T05:47:03;4.25;;;2.50;;
62957;SDS011;49056;48.352;10.926;2023-02-28T05:52:23;3.60;;;1.62;;
62957;SDS011;49056;48.352;10.926;2023-02-28T05:57:44;2.20;;;1.30;;
62957;SDS011;49056;48.352;10.926;2023-02-28T06:03:04;3.50;;;1.70;;
62957;SDS011;49056;48.352;10.926;2023-02-28T06:08:24;4.90;;;2.33;;
62957;SDS011;49056;48.352;10.926;2023-02-28T06:13:45;4.18;;;1.92;;
62957;SDS011;49056;48.352;10.926;2023-02-28T06:19:06;3.42;;;1.85;;
62957;SDS011;49056;48.352;10.926;2023-02-28T06:24:26;3.20;;;2.05;;
62957;SDS011;49056;48.352;10.926;2023-02-28T06:29:52;3.20;;;1.60;;
62957;SDS011;49056;48.352;10.926;2023-02-28T06:35:13;3.72;;;2.15;;
62957;SDS011;49056;48.352;10.926;2023-02-28T06:40:33;3.67;;;2.12;;
62957;SDS011;49056;48.352;10.926;2023-02-28T06:45:56;3.60;;;1.77;;
62957;SDS011;49056;48.352;10.926;2023-02-28T06:51:18;5.28;;;2.53;;
62957;SDS011;49056;48.352;10.926;2023-02-28T06:56:40;3.72;;;1.83;;
62957;SDS011;49056;48.352;10.926;2023-02-28T07:02:00;4.10;;;2.20;;
62957;SDS011;49056;48.352;10.926;2023-02-28T07:07:22;3.80;;;2.37;;
62957;SDS011;49056;48.352;10.926;2023-02-28T07:12:42;3.30;;;2.00;;
62957;SDS011;49056;48.352;10.926;2023-02-28T07:18:03;2.75;;;1.62;;
62957;SDS011;49056;48.352;10.926;2023-02-28T07:23:23;4.50;;;2.53;;
62957;SDS011;49056;48.352;10.926;2023-02-28T07:28:44;3.90;;;2.20;;
62957;SDS011;49056;48.352;10.926;2023-02-28T07:34:05;3.33;;;1.70;;
62957;SDS011;49056;48.352;10.926;2023-02-28T07:39:25;6.13;;;2.40;;
62957;SDS011;49056;48.352;10.926;2023-02-28T07:44:46;2.95;;;1.50;;
62957;SDS011;49056;48.352;10.926;2023-02-28T07:50:07;5.28;;;2.22;;
62957;SDS011;49056;48.352;10.926;2023-02-28T07:55:27;4.22;;;2.05;;
62957;SDS011;49056;48.352;10.926;2023-02-28T08:00:48;4.77;;;1.97;;
62957;SDS011;49056;48.352;10.926;2023-02-28T08:06:14;4.25;;;2.10;;
62957;SDS011;49056;48.352;10.926;2023-02-28T08:11:35;3.40;;;2.17;;
62957;SDS011;49056;48.352;10.926;2023-02-28T08:16:56;4.40;;;2.17;;
62957;SDS011;49056;48.352;10.926;2023-02-28T08:22:16;3.93;;;2.10;;
62957;SDS011;49056;48.352;10.926;2023-02-28T08:27:37;4.25;;;2.53;;
62957;SDS011;49056;48.352;10.926;2023-02-28T08:32:57;4.65;;;2.28;;
62957;SDS011;49056;48.352;10.926;2023-02-28T08:38:18;3.15;;;1.85;;
62957;SDS011;49056;48.352;10.926;2023-02-28T08:43:38;6.37;;;2.73;;
62957;SDS011;49056;48.352;10.926;2023-02-28T08:48:59;3.75;;;1.90;;
62957;SDS011;49056;48.352;10.926;2023-02-28T08:54:21;3.97;;;1.87;;
62957;SDS011;49056;48.352;10.926;2023-02-28T08:59:42;4.75;;;2.65;;
62957;SDS011;49056;48.352;10.926;2023-02-28T09:05:03;4.62;;;3.28;;
62957;SDS011;49056;48.352;10.926;2023-02-28T09:10:23;7.97;;;3.83;;
62957;SDS011;49056;48.352;10.926;2023-02-28T09:15:44;3.70;;;2.17;;
62957;SDS011;49056;48.352;10.926;2023-02-28T09:21:05;5.07;;;2.73;;
62957;SDS011;49056;48.352;10.926;2023-02-28T09:26:26;4.72;;;2.37;;
62957;SDS011;49056;48.352;10.926;2023-02-28T09:31:46;4.37;;;2.58;;
62957;SDS011;49056;48.352;10.926;2023-02-28T09:37:07;3.90;;;2.20;;
62957;SDS011;49056;48.352;10.926;2023-02-28T09:42:33;7.00;;;2.70;;
62957;SDS011;49056;48.352;10.926;2023-02-28T09:53:36;5.30;;;2.78;;
62957;SDS011;49056;48.352;10.926;2023-02-28T09:58:59;4.18;;;2.58;;
62957;SDS011;49056;48.352;10.926;2023-02-28T10:09:40;4.30;;;1.73;;
62957;SDS011;49056;48.352;10.926;2023-02-28T10:15:01;5.07;;;2.27;;
62957;SDS011;49056;48.352;10.926;2023-02-28T10:20:22;4.07;;;1.58;;
62957;SDS011;49056;48.352;10.926;2023-02-28T10:25:57;5.05;;;2.90;;
62957;SDS011;49056;48.352;10.926;2023-02-28T10:31:18;4.37;;;2.47;;
62957;SDS011;49056;48.352;10.926;2023-02-28T10:36:39;5.35;;;2.65;;
62957;SDS011;49056;48.352;10.926;2023-02-28T10:42:00;4.18;;;2.17;;
62957;SDS011;49056;48.352;10.926;2023-02-28T10:47:20;3.78;;;2.20;;
62957;SDS011;49056;48.352;10.926;2023-02-28T10:52:40;4.53;;;2.67;;
62957;SDS011;49056;48.352;10.926;2023-02-28T10:58:02;7.25;;;3.45;;
62957;SDS011;49056;48.352;10.926;2023-02-28T11:03:24;6.10;;;3.50;;
62957;SDS011;49056;48.352;10.926;2023-02-28T11:09:12;4.25;;;2.30;;
62957;SDS011;49056;48.352;10.926;2023-02-28T11:14:26;4.28;;;2.22;;
62957;SDS011;49056;48.352;10.926;2023-02-28T11:19:47;4.12;;;2.85;;
62957;SDS011;49056;48.352;10.926;2023-02-28T11:25:20;4.05;;;2.45;;
62957;SDS011;49056;48.352;10.926;2023-02-28T11:30:42;3.28;;;1.85;;
62957;SDS011;49056;48.352;10.926;2023-02-28T11:36:10;5.23;;;2.90;;
62957;SDS011;49056;48.352;10.926;2023-02-28T11:41:37;5.57;;;2.85;;
62957;SDS011;49056;48.352;10.926;2023-02-28T11:52:45;3.90;;;1.98;;
62957;SDS011;49056;48.352;10.926;2023-02-28T12:03:42;3.50;;;2.03;;
62957;SDS011;49056;48.352;10.926;2023-02-28T12:31:11;5.25;;;2.90;;
62957;SDS011;49056;48.352;10.926;2023-02-28T12:36:34;3.67;;;2.60;;
62957;SDS011;49056;48.352;10.926;2023-02-28T12:41:59;4.75;;;2.83;;
62957;SDS011;49056;48.352;10.926;2023-02-28T12:47:22;3.37;;;2.08;;
62957;SDS011;49056;48.352;10.926;2023-02-28T13:14:29;4.28;;;1.87;;
62957;SDS011;49056;48.352;10.926;2023-02-28T13:52:18;3.95;;;1.37;;
62957;SDS011;49056;48.352;10.926;2023-02-28T14:03:26;4.87;;;2.00;;
62957;SDS011;49056;48.352;10.926;2023-02-28T14:19:55;4.45;;;2.70;;
62957;SDS011;49056;48.352;10.926;2023-02-28T14:36:18;3.28;;;1.70;;
62957;SDS011;49056;48.352;10.926;2023-02-28T14:41:41;3.42;;;1.48;;
62957;SDS011;49056;48.352;10.926;2023-02-28T14:47:02;4.25;;;2.22;;
62957;SDS011;49056;48.352;10.926;2023-02-28T14:52:32;6.28;;;2.67;;
62957;SDS011;49056;48.352;10.926;2023-02-28T14:57:57;2.95;;;1.42;;
62957;SDS011;49056;48.352;10.926;2023-02-28T15:03:36;3.67;;;2.17;;
62957;SDS011;49056;48.352;10.926;2023-02-28T15:14:50;2.15;;;1.50;;
62957;SDS011;49056;48.352;10.926;2023-02-28T15:20:11;2.57;;;1.27;;
62957;SDS011;49056;48.352;10.926;2023-02-28T15:25:32;3.60;;;1.75;;
62957;SDS011;49056;48.352;10.926;2023-02-28T15:30:54;3.90;;;2.07;;
62957;SDS011;49056;48.352;10.926;2023-02-28T15:36:15;3.33;;;1.98;;
62957;SDS011;49056;48.352;10.926;2023-02-28T15:41:37;5.60;;;2.30;;
62957;SDS011;49056;48.352;10.926;2023-02-28T15:47:01;7.43;;;2.40;;
62957;SDS011;49056;48.352;10.926;2023-02-28T15:57:53;3.72;;;2.10;;
62957;SDS011;49056;48.352;10.926;2023-02-28T16:03:24;3.92;;;2.03;;
62957;SDS011;49056;48.352;10.926;2023-02-28T16:08:44;3.60;;;1.83;;
62957;SDS011;49056;48.352;10.926;2023-02-28T16:14:05;3.95;;;2.35;;
62957;SDS011;49056;48.352;10.926;2023-02-28T16:19:25;3.78;;;2.83;;
62957;SDS011;49056;48.352;10.926;2023-02-28T16:24:45;4.70;;;2.20;;
62957;SDS011;49056;48.352;10.926;2023-02-28T16:30:06;5.47;;;2.53;;
62957;SDS011;49056;48.352;10.926;2023-02-28T16:35:27;4.00;;;2.35;;
62957;SDS011;49056;48.352;10.926;2023-02-28T16:40:48;3.97;;;2.40;;
62957;SDS011;49056;48.352;10.926;2023-02-28T16:46:10;4.18;;;1.80;;
62957;SDS011;49056;48.352;10.926;2023-02-28T16:51:31;2.87;;;1.52;;
62957;SDS011;49056;48.352;10.926;2023-02-28T16:56:51;3.70;;;2.08;;
62957;SDS011;49056;48.352;10.926;2023-02-28T17:02:12;3.25;;;1.70;;
62957;SDS011;49056;48.352;10.926;2023-02-28T17:07:34;2.75;;;1.77;;
62957;SDS011;49056;48.352;10.926;2023-02-28T17:12:54;4.53;;;1.95;;
62957;SDS011;49056;48.352;10.926;2023-02-28T17:18:15;3.15;;;1.70;;
62957;SDS011;49056;48.352;10.926;2023-02-28T17:23:38;5.68;;;2.08;;
62957;SDS011;49056;48.352;10.926;2023-02-28T17:28:59;2.92;;;1.95;;
62957;SDS011;49056;48.352;10.926;2023-02-28T17:34:19;4.03;;;1.87;;
62957;SDS011;49056;48.352;10.926;2023-02-28T17:39:40;6.05;;;2.67;;
62957;SDS011;49056;48.352;10.926;2023-02-28T17:45:00;2.05;;;1.52;;
62957;SDS011;49056;48.352;10.926;2023-02-28T17:50:21;3.57;;;1.97;;
62957;SDS011;49056;48.352;10.926;2023-02-28T17:55:41;4.47;;;2.20;;
62957;SDS011;49056;48.352;10.926;2023-02-28T18:01:01;4.62;;;2.30;;
62957;SDS011;49056;48.352;10.926;2023-02-28T18:06:23;2.80;;;1.77;;
62957;SDS011;49056;48.352;10.926;2023-02-28T18:11:44;3.80;;;1.95;;
62957;SDS011;49056;48.352;10.926;2023-02-28T18:17:11;5.10;;;2.30;;
62957;SDS011;49056;48.352;10.926;2023-02-28T18:22:32;5.35;;;2.20;;
62957;SDS011;49056;48.352;10.926;2023-02-28T18:27:52;4.20;;;2.10;;
62957;SDS011;49056;48.352;10.926;2023-02-28T18:33:13;3.40;;;1.80;;
62957;SDS011;49056;48.352;10.926;2023-02-28T18:38:33;3.45;;;1.50;;
62957;SDS011;49056;48.352;10.926;2023-02-28T18:43:53;3.20;;;1.97;;
62957;SDS011;49056;48.352;10.926;2023-02-28T18:49:14;3.50;;;1.87;;
62957;SDS011;49056;48.352;10.926;2023-02-28T18:54:34;3.30;;;2.07;;
62957;SDS011;49056;48.352;10.926;2023-02-28T18:59:55;3.33;;;1.70;;
62957;SDS011;49056;48.352;10.926;2023-02-28T19:05:15;2.40;;;1.52;;
62957;SDS011;49056;48.352;10.926;2023-02-28T19:10:37;3.55;;;1.70;;
62957;SDS011;49056;48.352;10.926;2023-02-28T19:16:04;3.55;;;2.15;;
62957;SDS011;49056;48.352;10.926;2023-02-28T19:21:25;4.35;;;1.87;;
62957;SDS011;49056;48.352;10.926;2023-02-28T19:26:46;4.60;;;2.37;;
62957;SDS011;49056;48.352;10.926;2023-02-28T19:32:06;3.77;;;2.10;;
62957;SDS011;49056;48.352;10.926;2023-02-28T19:37:26;3.75;;;1.62;;
62957;SDS011;49056;48.352;10.926;2023-02-28T19:42:47;3.53;;;1.75;;
62957;SDS011;49056;48.352;10.926;2023-02-28T19:48:07;4.22;;;2.20;;
62957;SDS011;49056;48.352;10.926;2023-02-28T19:53:29;3.83;;;2.05;;
62957;SDS011;49056;48.352;10.926;2023-02-28T19:58:49;3.08;;;1.75;;
62957;SDS011;49056;48.352;10.926;2023-02-28T20:04:10;3.47;;;1.98;;
62957;SDS011;49056;48.352;10.926;2023-02-28T20:09:30;3.90;;;2.33;;
62957;SDS011;49056;48.352;10.926;2023-02-28T20:14:51;4.05;;;2.17;;
62957;SDS011;49056;48.352;10.926;2023-02-28T20:20:12;3.75;;;2.00;;
62957;SDS011;49056;48.352;10.926;2023-02-28T20:25:32;3.50;;;2.15;;
62957;SDS011;49056;48.352;10.926;2023-02-28T20:30:53;3.77;;;2.17;;
62957;SDS011;49056;48.352;10.926;2023-02-28T20:36:13;4.00;;;1.70;;
62957;SDS011;49056;48.352;10.926;2023-02-28T20:41:34;2.87;;;1.92;;
62957;SDS011;49056;48.352;10.926;2023-02-28T20:46:55;3.00;;;2.20;;
62957;SDS011;49056;48.352;10.926;2023-02-28T20:52:15;3.83;;;1.90;;
62957;SDS011;49056;48.352;10.926;2023-02-28T20:57:35;2.80;;;1.33;;
62957;SDS011;49056;48.352;10.926;2023-02-28T21:02:56;4.15;;;2.15;;
62957;SDS011;49056;48.352;10.926;2023-02-28T21:08:17;3.10;;;2.20;;
62957;SDS011;49056;48.352;10.926;2023-02-28T21:13:38;3.78;;;2.17;;
62957;SDS011;49056;48.352;10.926;2023-02-28T21:18:59;3.45;;;1.90;;
62957;SDS011;49056;48.352;10.926;2023-02-28T21:24:23;3.37;;;1.73;;
62957;SDS011;49056;48.352;10.926;2023-02-28T21:29:44;4.55;;;2.50;;
62957;SDS011;49056;48.352;10.926;2023-02-28T21:35:04;3.33;;;1.92;;
62957;SDS011;49056;48.352;10.926;2023-02-28T21:40:25;3.47;;;2.00;;
62957;SDS011;49056;48.352;10.926;2023-02-28T21:45:45;4.62;;;2.30;;
62957;SDS011;49056;48.352;10.926;2023-02-28T21:51:07;4.93;;;2.10;;
62957;SDS011;49056;48.352;10.926;2023-02-28T21:56:29;3.22;;;1.80;;
62957;SDS011;49056;48.352;10.926;2023-02-28T22:01:49;5.40;;;2.53;;
62957;SDS011;49056;48.352;10.926;2023-02-28T22:07:10;4.05;;;2.20;;
62957;SDS011;49056;48.352;10.926;2023-02-28T22:12:30;3.47;;;2.37;;
62957;SDS011;49056;48.352;10.926;2023-02-28T22:17:51;3.53;;;2.10;;
62957;SDS011;49056;48.352;10.926;2023-02-28T22:23:11;4.28;;;2.40;;
62957;SDS011;49056;48.352;10.926;2023-02-28T22:28:32;2.87;;;2.15;;
62957;SDS011;49056;48.352;10.926;2023-02-28T22:33:53;3.45;;;1.48;;
62957;SDS011;49056;48.352;10.926;2023-02-28T22:39:13;4.15;;;2.10;;
62957;SDS011;49056;48.352;10.926;2023-02-28T22:44:34;3.35;;;1.95;;
62957;SDS011;49056;48.352;10.926;2023-02-28T22:49:54;3.78;;;2.40;;
62957;SDS011;49056;48.352;10.926;2023-02-28T22:55:15;3.33;;;1.50;;
62957;SDS011;49056;48.352;10.926;2023-02-28T23:00:35;4.28;;;2.70;;
62957;SDS011;49056;48.352;10.926;2023-02-28T23:05:55;5.77;;;2.30;;
62957;SDS011;49056;48.352;10.926;2023-02-28T23:11:20;4.03;;;2.47;;
62957;SDS011;49056;48.352;10.926;2023-02-28T23:16:41;3.80;;;2.15;;
62957;SDS011;49056;48.352;10.926;2023-02-28T23:22:02;3.35;;;2.17;;
62957;SDS011;49056;48.352;10.926;2023-02-28T23:27:23;4.18;;;2.28;;
62957;SDS011;49056;48.352;10.926;2023-02-28T23:32:43;6.55;;;2.62;;
62957;SDS011;49056;48.352;10.926;2023-02-28T23:38:04;5.33;;;2.60;;
62957;SDS011;49056;48.352;10.926;2023-02-28T23:43:24;4.05;;;2.53;;
62957;SDS011;49056;48.352;10.926;2023-02-28T23:48:45;5.45;;;2.90;;
62957;SDS011;49056;48.352;10.926;2023-02-28T23:54:06;4.12;;;2.28;;
62957;SDS011;49056;48.352;10.926;2023-02-28T23:59:26;5.28;;;2.83;;
